Time,TemperatureF,DewpointF,PressureIn,WindDirection,WindDirectionDegrees,WindSpeedMPH,WindSpeedGustMPH,Humidity,HourlyPrecipIn,Conditions,Clouds,dailyrainin,SoftwareType,DateUTC
2013-06-19 00:00:00,53.0,44.0,-100.00,NNW,332,5.0,-999.0,69,0.00,,,-99.99,,2013-06-19 07:00:00,
2013-06-19 00:22:00,53.0,44.0,-100.00,NNW,332,5.0,-999.0,69,0.00,,,-99.99,,2013-06-19 07:22:00,
2013-06-19 00:33:00,53.0,44.0,-100.00,NNW,332,5.0,-999.0,69,0.00,,,-99.99,,2013-06-19 07:33:00,
2013-06-19 00:43:00,53.0,44.0,-100.00,NNW,332,5.0,-999.0,69,0.00,,,-99.99,,2013-06-19 07:43:00,
2013-06-19 00:53:00,53.0,44.0,-100.00,NNW,332,5.0,-999.0,69,0.00,,,-99.99,,2013-06-19 07:53:00,
2013-06-19 01:00:00,53.0,43.0,-100.00,NNW,329,4.0,-999.0,70,0.00,,,-99.99,,2013-06-19 08:00:00,
2013-06-19 01:34:00,53.0,43.0,-100.00,NNW,329,4.0,-999.0,70,0.00,,,-99.99,,2013-06-19 08:34:00,
2013-06-19 01:43:00,53.0,43.0,-100.00,NNW,329,4.0,-999.0,70,0.00,,,-99.99,,2013-06-19 08:43:00,
2013-06-19 01:53:00,53.0,43.0,-100.00,NNW,329,4.0,-999.0,70,0.00,,,-99.99,,2013-06-19 08:53:00,
2013-06-19 02:00:00,51.0,43.0,-100.00,NNW,333,4.0,-999.0,75,0.00,,,-99.99,,2013-06-19 09:00:00,
2013-06-19 02:34:00,51.0,43.0,-100.00,NNW,333,4.0,-999.0,75,0.00,,,-99.99,,2013-06-19 09:34:00,
2013-06-19 02:44:00,51.0,43.0,-100.00,NNW,333,4.0,-999.0,75,0.00,,,-99.99,,2013-06-19 09:44:00,
2013-06-19 02:53:00,51.0,43.0,-100.00,NNW,333,4.0,-999.0,75,0.00,,,-99.99,,2013-06-19 09:53:00,
2013-06-19 03:00:00,50.0,43.0,-100.00,NNW,333,4.0,-999.0,78,0.00,,,-99.99,,2013-06-19 10:00:00,
2013-06-19 03:22:00,50.0,43.0,-100.00,NNW,333,4.0,-999.0,78,0.00,,,-99.99,,2013-06-19 10:22:00,
2013-06-19 03:33:00,50.0,43.0,-100.00,NNW,333,4.0,-999.0,78,0.00,,,-99.99,,2013-06-19 10:33:00,
2013-06-19 03:43:00,50.0,43.0,-100.00,NNW,333,4.0,-999.0,78,0.00,,,-99.99,,2013-06-19 10:43:00,
2013-06-19 03:53:00,50.0,43.0,-100.00,NNW,333,4.0,-999.0,78,0.00,,,-99.99,,2013-06-19 10:53:00,
2013-06-19 04:00:00,48.0,43.0,-100.00,NNW,346,4.0,-999.0,82,0.00,,,-99.99,,2013-06-19 11:00:00,
2013-06-19 04:33:00,48.0,43.0,-100.00,NNW,346,4.0,-999.0,82,0.00,,,-99.99,,2013-06-19 11:33:00,
2013-06-19 04:43:00,48.0,43.0,-100.00,NNW,346,4.0,-999.0,82,0.00,,,-99.99,,2013-06-19 11:43:00,
2013-06-19 04:54:00,48.0,43.0,-100.00,NNW,346,4.0,-999.0,82,0.00,,,-99.99,,2013-06-19 11:54:00,
2013-06-19 05:00:00,47.0,43.0,-100.00,North,2,0.0,-999.0,84,0.00,,,-99.99,,2013-06-19 12:00:00,
2013-06-19 05:34:00,47.0,43.0,-100.00,North,2,0.0,-999.0,84,0.00,,,-99.99,,2013-06-19 12:34:00,
2013-06-19 05:44:00,47.0,43.0,-100.00,North,2,0.0,-999.0,84,0.00,,,-99.99,,2013-06-19 12:44:00,
2013-06-19 05:53:00,47.0,43.0,-100.00,North,2,0.0,-999.0,84,0.00,,,-99.99,,2013-06-19 12:53:00,
2013-06-19 06:00:00,48.0,43.0,-100.00,ENE,73,1.0,-999.0,85,0.00,,,-99.99,,2013-06-19 13:00:00,
2013-06-19 06:43:00,48.0,43.0,-100.00,ENE,73,1.0,-999.0,85,0.00,,,-99.99,,2013-06-19 13:43:00,
2013-06-19 06:54:00,48.0,43.0,-100.00,ENE,73,1.0,-999.0,85,0.00,,,-99.99,,2013-06-19 13:54:00,
2013-06-19 07:00:00,48.0,43.0,-100.00,SSE,154,1.0,-999.0,84,0.00,,,-99.99,,2013-06-19 14:00:00,
2013-06-19 07:22:00,48.0,43.0,-100.00,SSE,154,1.0,-999.0,84,0.00,,,-99.99,,2013-06-19 14:22:00,
2013-06-19 07:33:00,48.0,43.0,-100.00,SSE,154,1.0,-999.0,84,0.00,,,-99.99,,2013-06-19 14:33:00,
2013-06-19 07:44:00,48.0,43.0,-100.00,SSE,154,1.0,-999.0,84,0.00,,,-99.99,,2013-06-19 14:44:00,
2013-06-19 07:53:00,48.0,43.0,-100.00,SSE,154,1.0,-999.0,84,0.00,,,-99.99,,2013-06-19 14:53:00,
2013-06-19 08:00:00,51.0,44.0,-100.00,SE,131,1.0,-999.0,77,0.00,,,-99.99,,2013-06-19 15:00:00,
2013-06-19 08:33:00,51.0,44.0,-100.00,SE,131,1.0,-999.0,77,0.00,,,-99.99,,2013-06-19 15:33:00,
2013-06-19 08:43:00,51.0,44.0,-100.00,SE,131,1.0,-999.0,77,0.00,,,-99.99,,2013-06-19 15:43:00,
2013-06-19 08:53:00,51.0,44.0,-100.00,SE,131,1.0,-999.0,77,0.00,,,-99.99,,2013-06-19 15:53:00,
2013-06-19 09:00:00,56.0,44.0,-100.00,NNW,332,2.0,-999.0,64,0.00,,,-99.99,,2013-06-19 16:00:00,
2013-06-19 09:34:00,56.0,44.0,-100.00,NNW,332,2.0,-999.0,64,0.00,,,-99.99,,2013-06-19 16:34:00,
2013-06-19 09:43:00,56.0,44.0,-100.00,NNW,332,2.0,-999.0,64,0.00,,,-99.99,,2013-06-19 16:43:00,
2013-06-19 09:52:00,56.0,44.0,-100.00,NNW,332,2.0,-999.0,64,0.00,,,-99.99,,2013-06-19 16:52:00,
2013-06-19 10:00:00,59.0,43.0,-100.00,NNW,348,6.0,-999.0,55,0.00,,,-99.99,,2013-06-19 17:00:00,
2013-06-19 10:34:00,59.0,43.0,-100.00,NNW,348,6.0,-999.0,55,0.00,,,-99.99,,2013-06-19 17:34:00,
2013-06-19 10:43:00,59.0,43.0,-100.00,NNW,348,6.0,-999.0,55,0.00,,,-99.99,,2013-06-19 17:43:00,
2013-06-19 10:53:00,59.0,43.0,-100.00,NNW,348,6.0,-999.0,55,0.00,,,-99.99,,2013-06-19 17:53:00,
2013-06-19 11:00:00,63.0,42.0,-100.00,NW,323,4.0,-999.0,46,0.00,,,-99.99,,2013-06-19 18:00:00,
2013-06-19 11:24:00,63.0,42.0,-100.00,NW,323,4.0,-999.0,46,0.00,,,-99.99,,2013-06-19 18:24:00,
2013-06-19 11:33:00,63.0,42.0,-100.00,NW,323,4.0,-999.0,46,0.00,,,-99.99,,2013-06-19 18:33:00,
2013-06-19 11:44:00,63.0,42.0,-100.00,NW,323,4.0,-999.0,46,0.00,,,-99.99,,2013-06-19 18:44:00,
2013-06-19 11:53:00,63.0,42.0,-100.00,NW,323,4.0,-999.0,46,0.00,,,-99.99,,2013-06-19 18:53:00,
2013-06-19 12:00:00,66.0,40.0,-100.00,NNW,330,2.0,-999.0,39,0.00,,,-99.99,,2013-06-19 19:00:00,
2013-06-19 12:32:00,66.0,40.0,-100.00,NNW,330,2.0,-999.0,39,0.00,,,-99.99,,2013-06-19 19:32:00,
2013-06-19 12:43:00,66.0,40.0,-100.00,NNW,330,2.0,-999.0,39,0.00,,,-99.99,,2013-06-19 19:43:00,
2013-06-19 12:53:00,66.0,40.0,-100.00,NNW,330,2.0,-999.0,39,0.00,,,-99.99,,2013-06-19 19:53:00,
2013-06-19 13:00:00,67.0,40.0,-100.00,NW,320,3.0,-999.0,36,0.00,,,-99.99,,2013-06-19 20:00:00,
2013-06-19 13:33:00,67.0,40.0,-100.00,NW,320,3.0,-999.0,36,0.00,,,-99.99,,2013-06-19 20:33:00,
2013-06-19 13:42:00,67.0,40.0,-100.00,NW,320,3.0,-999.0,36,0.00,,,-99.99,,2013-06-19 20:42:00,
2013-06-19 13:52:00,67.0,40.0,-100.00,NW,320,3.0,-999.0,36,0.00,,,-99.99,,2013-06-19 20:52:00,
2013-06-19 14:00:00,72.0,45.0,-100.00,SSW,213,4.0,-999.0,38,0.00,,,-99.99,,2013-06-19 21:00:00,
2013-06-19 14:22:00,72.0,45.0,-100.00,SSW,213,4.0,-999.0,38,0.00,,,-99.99,,2013-06-19 21:22:00,
2013-06-19 14:33:00,72.0,45.0,-100.00,SSW,213,4.0,-999.0,38,0.00,,,-99.99,,2013-06-19 21:33:00,
2013-06-19 14:44:00,72.0,45.0,-100.00,SSW,213,4.0,-999.0,38,0.00,,,-99.99,,2013-06-19 21:44:00,
2013-06-19 14:52:00,72.0,45.0,-100.00,SSW,213,4.0,-999.0,38,0.00,,,-99.99,,2013-06-19 21:52:00,
2013-06-19 15:00:00,71.0,46.0,-100.00,NW,320,1.0,-999.0,40,0.00,,,-99.99,,2013-06-19 22:00:00,
2013-06-19 15:34:00,71.0,46.0,-100.00,NW,320,1.0,-999.0,40,0.00,,,-99.99,,2013-06-19 22:34:00,
2013-06-19 15:43:00,71.0,46.0,-100.00,NW,320,1.0,-999.0,40,0.00,,,-99.99,,2013-06-19 22:43:00,
2013-06-19 15:53:00,71.0,46.0,-100.00,NW,320,1.0,-999.0,40,0.00,,,-99.99,,2013-06-19 22:53:00,
2013-06-19 16:00:00,72.0,45.0,-100.00,NNE,31,1.0,-999.0,38,0.00,,,-99.99,,2013-06-19 23:00:00,
2013-06-19 16:34:00,72.0,45.0,-100.00,NNE,31,1.0,-999.0,38,0.00,,,-99.99,,2013-06-19 23:34:00,
2013-06-19 16:43:00,72.0,45.0,-100.00,NNE,31,1.0,-999.0,38,0.00,,,-99.99,,2013-06-19 23:43:00,
2013-06-19 16:52:00,72.0,45.0,-100.00,NNE,31,1.0,-999.0,38,0.00,,,-99.99,,2013-06-19 23:52:00,
2013-06-19 17:00:00,72.0,44.0,-100.00,NW,308,2.0,-999.0,37,0.00,,,-99.99,,2013-06-20 00:00:00,
2013-06-19 17:34:00,72.0,44.0,-100.00,NW,308,2.0,-999.0,37,0.00,,,-99.99,,2013-06-20 00:34:00,
2013-06-19 17:44:00,72.0,44.0,-100.00,NW,308,2.0,-999.0,37,0.00,,,-99.99,,2013-06-20 00:44:00,
2013-06-19 17:52:00,72.0,44.0,-100.00,NW,308,2.0,-999.0,37,0.00,,,-99.99,,2013-06-20 00:52:00,
2013-06-19 18:00:00,69.0,45.0,-100.00,NNW,334,5.0,-999.0,42,0.00,,,-99.99,,2013-06-20 01:00:00,
2013-06-19 18:22:00,69.0,45.0,-100.00,NNW,334,5.0,-999.0,42,0.00,,,-99.99,,2013-06-20 01:22:00,
2013-06-19 18:33:00,69.0,45.0,-100.00,NNW,334,5.0,-999.0,42,0.00,,,-99.99,,2013-06-20 01:33:00,
2013-06-19 18:44:00,69.0,45.0,-100.00,NNW,334,5.0,-999.0,42,0.00,,,-99.99,,2013-06-20 01:44:00,
2013-06-19 18:52:00,69.0,45.0,-100.00,NNW,334,5.0,-999.0,42,0.00,,,-99.99,,2013-06-20 01:52:00,
2013-06-19 19:00:00,65.0,47.0,-100.00,NW,324,4.0,-999.0,51,0.00,,,-99.99,,2013-06-20 02:00:00,
2013-06-19 19:34:00,65.0,47.0,-100.00,NW,324,4.0,-999.0,51,0.00,,,-99.99,,2013-06-20 02:34:00,
2013-06-19 19:43:00,65.0,47.0,-100.00,NW,324,4.0,-999.0,51,0.00,,,-99.99,,2013-06-20 02:43:00,
2013-06-19 19:52:00,65.0,47.0,-100.00,NW,324,4.0,-999.0,51,0.00,,,-99.99,,2013-06-20 02:52:00,
2013-06-19 20:00:00,63.0,46.0,-100.00,WNW,295,3.0,-999.0,54,0.00,,,-99.99,,2013-06-20 03:00:00,
2013-06-19 20:22:00,63.0,46.0,-100.00,WNW,295,3.0,-999.0,54,0.00,,,-99.99,,2013-06-20 03:22:00,
2013-06-19 20:33:00,63.0,46.0,-100.00,WNW,295,3.0,-999.0,54,0.00,,,-99.99,,2013-06-20 03:33:00,
2013-06-19 20:43:00,63.0,46.0,-100.00,WNW,295,3.0,-999.0,54,0.00,,,-99.99,,2013-06-20 03:43:00,
2013-06-19 20:54:00,63.0,46.0,-100.00,WNW,295,3.0,-999.0,54,0.00,,,-99.99,,2013-06-20 03:54:00,
2013-06-19 21:00:00,60.0,44.0,-100.00,North,350,5.0,-999.0,54,0.00,,,-99.99,,2013-06-20 04:00:00,
2013-06-19 21:23:00,60.0,44.0,-100.00,North,350,5.0,-999.0,54,0.00,,,-99.99,,2013-06-20 04:23:00,
2013-06-19 21:34:00,60.0,44.0,-100.00,North,350,5.0,-999.0,54,0.00,,,-99.99,,2013-06-20 04:34:00,
2013-06-19 21:43:00,60.0,44.0,-100.00,North,350,5.0,-999.0,54,0.00,,,-99.99,,2013-06-20 04:43:00,
2013-06-19 21:54:00,60.0,44.0,-100.00,North,350,5.0,-999.0,54,0.00,,,-99.99,,2013-06-20 04:54:00,
2013-06-19 22:00:00,57.0,43.0,-100.00,East,86,1.0,-999.0,57,0.00,,,-99.99,,2013-06-20 05:00:00,
2013-06-19 22:22:00,57.0,43.0,-100.00,East,86,1.0,-999.0,57,0.00,,,-99.99,,2013-06-20 05:22:00,
2013-06-19 22:33:00,57.0,43.0,-100.00,East,86,1.0,-999.0,57,0.00,,,-99.99,,2013-06-20 05:33:00,
2013-06-19 22:44:00,57.0,43.0,-100.00,East,86,1.0,-999.0,57,0.00,,,-99.99,,2013-06-20 05:44:00,
2013-06-19 22:53:00,57.0,43.0,-100.00,East,86,1.0,-999.0,57,0.00,,,-99.99,,2013-06-20 05:53:00,
2013-06-19 23:00:00,56.0,43.0,-100.00,NNW,335,3.0,-999.0,61,0.00,,,-99.99,,2013-06-20 06:00:00,
2013-06-19 23:34:00,56.0,43.0,-100.00,NNW,335,3.0,-999.0,61,0.00,,,-99.99,,2013-06-20 06:34:00,
2013-06-19 23:43:00,56.0,43.0,-100.00,NNW,335,3.0,-999.0,61,0.00,,,-99.99,,2013-06-20 06:43:00,
2013-06-19 23:53:00,56.0,43.0,-100.00,NNW,335,3.0,-999.0,61,0.00,,,-99.99,,2013-06-20 06:53:00,